sensor_id;sensor_type;location;lat;lon;timestamp;P1;durP1;ratioP1;P2;durP2;ratioP2
70806;SDS011;58882;52.170;5.386;2023-04-28T00:02:23;7.20;;;3.65;;
70806;SDS011;58882;52.170;5.386;2023-04-28T00:04:52;8.70;;;3.92;;
70806;SDS011;58882;52.170;5.386;2023-04-28T00:07:19;8.02;;;3.72;;
70806;SDS011;58882;52.170;5.386;2023-04-28T00:09:46;7.93;;;3.95;;
70806;SDS011;58882;52.170;5.386;2023-04-28T00:12:13;8.70;;;3.80;;
70806;SDS011;58882;52.170;5.386;2023-04-28T00:14:40;7.63;;;4.00;;
70806;SDS011;58882;52.170;5.386;2023-04-28T00:17:07;9.73;;;4.40;;
70806;SDS011;58882;52.170;5.386;2023-04-28T00:22:03;7.93;;;3.58;;
70806;SDS011;58882;52.170;5.386;2023-04-28T00:24:31;7.32;;;3.40;;
70806;SDS011;58882;52.170;5.386;2023-04-28T00:26:59;11.07;;;4.10;;
70806;SDS011;58882;52.170;5.386;2023-04-28T00:29:27;7.68;;;3.35;;
70806;SDS011;58882;52.170;5.386;2023-04-28T00:31:54;7.85;;;3.55;;
70806;SDS011;58882;52.170;5.386;2023-04-28T00:34:21;8.63;;;3.90;;
70806;SDS011;58882;52.170;5.386;2023-04-28T00:36:48;9.55;;;3.80;;
70806;SDS011;58882;52.170;5.386;2023-04-28T00:39:15;9.25;;;3.88;;
70806;SDS011;58882;52.170;5.386;2023-04-28T00:41:43;7.93;;;3.38;;
70806;SDS011;58882;52.170;5.386;2023-04-28T00:44:11;9.27;;;3.88;;
70806;SDS011;58882;52.170;5.386;2023-04-28T00:46:37;8.50;;;3.65;;
70806;SDS011;58882;52.170;5.386;2023-04-28T00:49:04;7.88;;;3.60;;
70806;SDS011;58882;52.170;5.386;2023-04-28T00:51:31;8.70;;;3.65;;
70806;SDS011;58882;52.170;5.386;2023-04-28T00:53:59;9.70;;;3.67;;
70806;SDS011;58882;52.170;5.386;2023-04-28T00:56:27;7.38;;;3.40;;
70806;SDS011;58882;52.170;5.386;2023-04-28T00:58:56;7.22;;;3.55;;
70806;SDS011;58882;52.170;5.386;2023-04-28T01:01:23;8.40;;;3.60;;
70806;SDS011;58882;52.170;5.386;2023-04-28T01:03:50;7.13;;;3.50;;
70806;SDS011;58882;52.170;5.386;2023-04-28T01:06:18;9.43;;;3.83;;
70806;SDS011;58882;52.170;5.386;2023-04-28T01:08:48;8.73;;;3.60;;
70806;SDS011;58882;52.170;5.386;2023-04-28T01:11:18;7.55;;;3.60;;
70806;SDS011;58882;52.170;5.386;2023-04-28T01:13:59;7.60;;;3.40;;
70806;SDS011;58882;52.170;5.386;2023-04-28T01:16:29;7.45;;;3.40;;
70806;SDS011;58882;52.170;5.386;2023-04-28T01:18:58;10.20;;;4.03;;
70806;SDS011;58882;52.170;5.386;2023-04-28T01:21:27;10.95;;;4.13;;
70806;SDS011;58882;52.170;5.386;2023-04-28T01:24:04;8.55;;;3.55;;
70806;SDS011;58882;52.170;5.386;2023-04-28T01:26:31;9.95;;;3.70;;
70806;SDS011;58882;52.170;5.386;2023-04-28T01:28:59;9.50;;;3.45;;
70806;SDS011;58882;52.170;5.386;2023-04-28T01:31:26;7.43;;;3.10;;
70806;SDS011;58882;52.170;5.386;2023-04-28T01:33:56;8.45;;;3.50;;
70806;SDS011;58882;52.170;5.386;2023-04-28T01:36:23;10.18;;;3.90;;
70806;SDS011;58882;52.170;5.386;2023-04-28T01:38:53;5.90;;;3.25;;
70806;SDS011;58882;52.170;5.386;2023-04-28T01:41:20;9.93;;;3.75;;
70806;SDS011;58882;52.170;5.386;2023-04-28T01:43:47;9.13;;;3.42;;
70806;SDS011;58882;52.170;5.386;2023-04-28T01:46:14;10.13;;;3.85;;
70806;SDS011;58882;52.170;5.386;2023-04-28T01:48:41;8.77;;;3.85;;
70806;SDS011;58882;52.170;5.386;2023-04-28T01:51:08;6.93;;;3.22;;
70806;SDS011;58882;52.170;5.386;2023-04-28T01:53:37;7.57;;;3.50;;
70806;SDS011;58882;52.170;5.386;2023-04-28T01:56:04;7.85;;;3.40;;
70806;SDS011;58882;52.170;5.386;2023-04-28T01:58:30;7.20;;;3.28;;
70806;SDS011;58882;52.170;5.386;2023-04-28T02:00:57;8.02;;;3.50;;
70806;SDS011;58882;52.170;5.386;2023-04-28T02:03:24;8.63;;;3.28;;
70806;SDS011;58882;52.170;5.386;2023-04-28T02:05:53;8.05;;;3.72;;
70806;SDS011;58882;52.170;5.386;2023-04-28T02:08:20;11.27;;;3.50;;
70806;SDS011;58882;52.170;5.386;2023-04-28T02:10:47;7.30;;;3.80;;
70806;SDS011;58882;52.170;5.386;2023-04-28T02:13:14;7.85;;;4.00;;
70806;SDS011;58882;52.170;5.386;2023-04-28T02:15:42;10.45;;;3.70;;
70806;SDS011;58882;52.170;5.386;2023-04-28T02:18:09;9.80;;;3.92;;
70806;SDS011;58882;52.170;5.386;2023-04-28T02:20:38;7.90;;;3.55;;
70806;SDS011;58882;52.170;5.386;2023-04-28T02:23:06;8.02;;;3.42;;
70806;SDS011;58882;52.170;5.386;2023-04-28T02:25:33;8.23;;;3.80;;
70806;SDS011;58882;52.170;5.386;2023-04-28T02:28:00;7.82;;;3.35;;
70806;SDS011;58882;52.170;5.386;2023-04-28T02:30:27;7.57;;;3.33;;
70806;SDS011;58882;52.170;5.386;2023-04-28T02:32:54;9.85;;;3.50;;
70806;SDS011;58882;52.170;5.386;2023-04-28T02:35:22;10.02;;;3.78;;
70806;SDS011;58882;52.170;5.386;2023-04-28T02:37:48;9.70;;;3.65;;
70806;SDS011;58882;52.170;5.386;2023-04-28T02:40:17;7.95;;;3.47;;
70806;SDS011;58882;52.170;5.386;2023-04-28T02:42:44;9.18;;;4.47;;
70806;SDS011;58882;52.170;5.386;2023-04-28T02:45:11;7.13;;;3.10;;
70806;SDS011;58882;52.170;5.386;2023-04-28T02:47:38;11.57;;;3.58;;
70806;SDS011;58882;52.170;5.386;2023-04-28T02:50:05;9.43;;;4.07;;
70806;SDS011;58882;52.170;5.386;2023-04-28T02:52:33;8.45;;;3.70;;
70806;SDS011;58882;52.170;5.386;2023-04-28T02:54:59;9.20;;;3.22;;
70806;SDS011;58882;52.170;5.386;2023-04-28T02:57:29;8.95;;;3.22;;
70806;SDS011;58882;52.170;5.386;2023-04-28T02:59:56;10.88;;;3.95;;
70806;SDS011;58882;52.170;5.386;2023-04-28T03:02:26;8.43;;;3.67;;
70806;SDS011;58882;52.170;5.386;2023-04-28T03:04:52;9.73;;;3.85;;
70806;SDS011;58882;52.170;5.386;2023-04-28T03:07:19;10.35;;;3.33;;
70806;SDS011;58882;52.170;5.386;2023-04-28T03:09:46;9.35;;;3.75;;
70806;SDS011;58882;52.170;5.386;2023-04-28T03:12:13;10.63;;;3.85;;
70806;SDS011;58882;52.170;5.386;2023-04-28T03:14:40;8.82;;;3.70;;
70806;SDS011;58882;52.170;5.386;2023-04-28T03:17:08;8.95;;;3.58;;
70806;SDS011;58882;52.170;5.386;2023-04-28T03:19:35;10.20;;;4.35;;
70806;SDS011;58882;52.170;5.386;2023-04-28T03:22:02;7.78;;;4.03;;
70806;SDS011;58882;52.170;5.386;2023-04-28T03:24:30;8.25;;;3.97;;
70806;SDS011;58882;52.170;5.386;2023-04-28T03:26:57;7.00;;;3.70;;
70806;SDS011;58882;52.170;5.386;2023-04-28T03:29:24;8.65;;;3.80;;
70806;SDS011;58882;52.170;5.386;2023-04-28T03:31:52;9.50;;;3.95;;
70806;SDS011;58882;52.170;5.386;2023-04-28T03:34:18;8.27;;;3.83;;
70806;SDS011;58882;52.170;5.386;2023-04-28T03:36:46;8.32;;;3.45;;
70806;SDS011;58882;52.170;5.386;2023-04-28T03:39:21;9.00;;;3.90;;
70806;SDS011;58882;52.170;5.386;2023-04-28T03:41:48;8.75;;;3.72;;
70806;SDS011;58882;52.170;5.386;2023-04-28T03:44:33;8.95;;;3.90;;
70806;SDS011;58882;52.170;5.386;2023-04-28T03:47:00;9.57;;;4.05;;
70806;SDS011;58882;52.170;5.386;2023-04-28T03:49:27;7.80;;;3.90;;
70806;SDS011;58882;52.170;5.386;2023-04-28T03:51:54;9.15;;;3.83;;
70806;SDS011;58882;52.170;5.386;2023-04-28T03:54:21;9.20;;;3.63;;
70806;SDS011;58882;52.170;5.386;2023-04-28T03:56:47;9.68;;;3.90;;
70806;SDS011;58882;52.170;5.386;2023-04-28T03:59:15;9.88;;;3.92;;
70806;SDS011;58882;52.170;5.386;2023-04-28T04:01:42;10.93;;;3.60;;
70806;SDS011;58882;52.170;5.386;2023-04-28T04:04:09;8.65;;;3.63;;
70806;SDS011;58882;52.170;5.386;2023-04-28T04:06:36;9.10;;;3.70;;
70806;SDS011;58882;52.170;5.386;2023-04-28T04:09:04;8.95;;;3.75;;
70806;SDS011;58882;52.170;5.386;2023-04-28T04:11:31;7.47;;;3.60;;
70806;SDS011;58882;52.170;5.386;2023-04-28T04:13:58;9.20;;;4.20;;
70806;SDS011;58882;52.170;5.386;2023-04-28T04:16:25;8.30;;;3.83;;
70806;SDS011;58882;52.170;5.386;2023-04-28T04:18:54;7.82;;;3.80;;
70806;SDS011;58882;52.170;5.386;2023-04-28T04:21:27;8.15;;;4.10;;
70806;SDS011;58882;52.170;5.386;2023-04-28T04:23:54;8.23;;;3.50;;
70806;SDS011;58882;52.170;5.386;2023-04-28T04:26:21;7.82;;;3.42;;
70806;SDS011;58882;52.170;5.386;2023-04-28T04:28:49;9.55;;;3.90;;
70806;SDS011;58882;52.170;5.386;2023-04-28T04:31:16;9.70;;;3.72;;
70806;SDS011;58882;52.170;5.386;2023-04-28T04:33:45;8.32;;;4.20;;
70806;SDS011;58882;52.170;5.386;2023-04-28T04:36:12;9.20;;;3.47;;
70806;SDS011;58882;52.170;5.386;2023-04-28T04:38:39;11.50;;;3.97;;
70806;SDS011;58882;52.170;5.386;2023-04-28T04:43:41;11.02;;;4.18;;
70806;SDS011;58882;52.170;5.386;2023-04-28T04:46:08;11.48;;;4.00;;
70806;SDS011;58882;52.170;5.386;2023-04-28T04:48:35;9.50;;;4.07;;
70806;SDS011;58882;52.170;5.386;2023-04-28T04:51:02;7.85;;;3.67;;
70806;SDS011;58882;52.170;5.386;2023-04-28T04:53:30;9.45;;;3.92;;
70806;SDS011;58882;52.170;5.386;2023-04-28T04:55:57;8.90;;;3.92;;
70806;SDS011;58882;52.170;5.386;2023-04-28T04:58:24;9.80;;;4.07;;
70806;SDS011;58882;52.170;5.386;2023-04-28T05:01:08;11.32;;;4.15;;
70806;SDS011;58882;52.170;5.386;2023-04-28T05:03:35;7.88;;;3.75;;
70806;SDS011;58882;52.170;5.386;2023-04-28T05:06:02;8.82;;;4.05;;
70806;SDS011;58882;52.170;5.386;2023-04-28T05:08:42;13.40;;;4.18;;
70806;SDS011;58882;52.170;5.386;2023-04-28T05:11:09;9.43;;;3.83;;
70806;SDS011;58882;52.170;5.386;2023-04-28T05:13:36;9.02;;;4.43;;
70806;SDS011;58882;52.170;5.386;2023-04-28T05:16:05;9.75;;;4.20;;
70806;SDS011;58882;52.170;5.386;2023-04-28T05:18:32;8.57;;;4.03;;
70806;SDS011;58882;52.170;5.386;2023-04-28T05:20:59;9.65;;;4.15;;
70806;SDS011;58882;52.170;5.386;2023-04-28T05:23:26;11.48;;;4.30;;
70806;SDS011;58882;52.170;5.386;2023-04-28T05:25:53;12.35;;;4.32;;
70806;SDS011;58882;52.170;5.386;2023-04-28T05:28:20;13.25;;;4.57;;
70806;SDS011;58882;52.170;5.386;2023-04-28T05:30:51;8.75;;;3.95;;
70806;SDS011;58882;52.170;5.386;2023-04-28T05:33:18;10.88;;;4.55;;
70806;SDS011;58882;52.170;5.386;2023-04-28T05:35:46;10.18;;;4.22;;
70806;SDS011;58882;52.170;5.386;2023-04-28T05:38:13;10.98;;;5.07;;
70806;SDS011;58882;52.170;5.386;2023-04-28T05:40:41;9.85;;;4.20;;
70806;SDS011;58882;52.170;5.386;2023-04-28T05:43:10;9.25;;;4.00;;
70806;SDS011;58882;52.170;5.386;2023-04-28T05:45:37;9.40;;;4.20;;
70806;SDS011;58882;52.170;5.386;2023-04-28T05:48:04;10.18;;;4.30;;
70806;SDS011;58882;52.170;5.386;2023-04-28T05:50:31;10.35;;;4.13;;
70806;SDS011;58882;52.170;5.386;2023-04-28T05:53:00;9.93;;;4.30;;
70806;SDS011;58882;52.170;5.386;2023-04-28T05:55:28;9.18;;;4.43;;
70806;SDS011;58882;52.170;5.386;2023-04-28T05:57:56;12.27;;;4.53;;
70806;SDS011;58882;52.170;5.386;2023-04-28T06:00:24;9.32;;;4.50;;
70806;SDS011;58882;52.170;5.386;2023-04-28T06:02:53;9.48;;;4.70;;
70806;SDS011;58882;52.170;5.386;2023-04-28T06:05:20;9.40;;;4.47;;
70806;SDS011;58882;52.170;5.386;2023-04-28T06:07:50;14.20;;;4.90;;
70806;SDS011;58882;52.170;5.386;2023-04-28T06:10:20;11.55;;;4.28;;
70806;SDS011;58882;52.170;5.386;2023-04-28T06:12:51;11.38;;;4.70;;
70806;SDS011;58882;52.170;5.386;2023-04-28T06:15:18;10.25;;;4.80;;
70806;SDS011;58882;52.170;5.386;2023-04-28T06:17:45;10.65;;;5.15;;
70806;SDS011;58882;52.170;5.386;2023-04-28T06:20:13;18.13;;;5.47;;
70806;SDS011;58882;52.170;5.386;2023-04-28T06:22:42;9.90;;;5.25;;
70806;SDS011;58882;52.170;5.386;2023-04-28T06:25:09;11.02;;;4.97;;
70806;SDS011;58882;52.170;5.386;2023-04-28T06:27:44;11.75;;;5.28;;
70806;SDS011;58882;52.170;5.386;2023-04-28T06:30:17;11.10;;;5.30;;
70806;SDS011;58882;52.170;5.386;2023-04-28T06:32:46;10.93;;;4.90;;
70806;SDS011;58882;52.170;5.386;2023-04-28T06:35:14;10.35;;;5.25;;
70806;SDS011;58882;52.170;5.386;2023-04-28T06:37:41;11.60;;;5.10;;
70806;SDS011;58882;52.170;5.386;2023-04-28T06:40:09;11.90;;;5.40;;
70806;SDS011;58882;52.170;5.386;2023-04-28T06:42:39;11.73;;;5.22;;
70806;SDS011;58882;52.170;5.386;2023-04-28T06:45:10;9.63;;;5.20;;
70806;SDS011;58882;52.170;5.386;2023-04-28T06:47:37;9.90;;;5.30;;
70806;SDS011;58882;52.170;5.386;2023-04-28T06:50:07;10.90;;;5.53;;
70806;SDS011;58882;52.170;5.386;2023-04-28T06:52:35;12.60;;;5.43;;
70806;SDS011;58882;52.170;5.386;2023-04-28T06:55:08;14.32;;;6.13;;
70806;SDS011;58882;52.170;5.386;2023-04-28T06:57:35;12.07;;;6.10;;
70806;SDS011;58882;52.170;5.386;2023-04-28T07:00:03;11.15;;;5.72;;
70806;SDS011;58882;52.170;5.386;2023-04-28T07:02:31;11.95;;;6.22;;
70806;SDS011;58882;52.170;5.386;2023-04-28T07:04:58;13.57;;;6.20;;
70806;SDS011;58882;52.170;5.386;2023-04-28T07:07:25;14.60;;;6.32;;
70806;SDS011;58882;52.170;5.386;2023-04-28T07:09:51;12.73;;;7.00;;
70806;SDS011;58882;52.170;5.386;2023-04-28T07:12:19;13.23;;;6.30;;
70806;SDS011;58882;52.170;5.386;2023-04-28T07:14:47;9.25;;;4.30;;
70806;SDS011;58882;52.170;5.386;2023-04-28T07:17:13;12.65;;;4.38;;
70806;SDS011;58882;52.170;5.386;2023-04-28T07:19:40;11.13;;;5.45;;
70806;SDS011;58882;52.170;5.386;2023-04-28T07:22:07;11.25;;;5.22;;
70806;SDS011;58882;52.170;5.386;2023-04-28T07:24:34;10.15;;;4.80;;
70806;SDS011;58882;52.170;5.386;2023-04-28T07:27:01;12.90;;;5.35;;
70806;SDS011;58882;52.170;5.386;2023-04-28T07:29:28;10.80;;;5.40;;
70806;SDS011;58882;52.170;5.386;2023-04-28T07:31:59;9.90;;;5.10;;
70806;SDS011;58882;52.170;5.386;2023-04-28T07:34:27;14.10;;;6.30;;
70806;SDS011;58882;52.170;5.386;2023-04-28T07:36:54;11.88;;;6.10;;
70806;SDS011;58882;52.170;5.386;2023-04-28T07:39:21;10.48;;;5.65;;
70806;SDS011;58882;52.170;5.386;2023-04-28T07:41:47;11.60;;;5.65;;
70806;SDS011;58882;52.170;5.386;2023-04-28T07:44:14;11.90;;;6.30;;
70806;SDS011;58882;52.170;5.386;2023-04-28T07:46:41;10.55;;;5.68;;
70806;SDS011;58882;52.170;5.386;2023-04-28T07:49:08;12.07;;;6.45;;
70806;SDS011;58882;52.170;5.386;2023-04-28T07:51:35;12.57;;;6.32;;
70806;SDS011;58882;52.170;5.386;2023-04-28T07:54:02;10.95;;;6.20;;
70806;SDS011;58882;52.170;5.386;2023-04-28T07:56:29;12.20;;;6.72;;
70806;SDS011;58882;52.170;5.386;2023-04-28T07:58:56;13.05;;;6.15;;
70806;SDS011;58882;52.170;5.386;2023-04-28T08:01:23;17.25;;;6.55;;
70806;SDS011;58882;52.170;5.386;2023-04-28T08:03:49;13.25;;;6.80;;
70806;SDS011;58882;52.170;5.386;2023-04-28T08:06:17;13.38;;;6.47;;
70806;SDS011;58882;52.170;5.386;2023-04-28T08:08:44;12.43;;;6.15;;
70806;SDS011;58882;52.170;5.386;2023-04-28T08:11:11;20.10;;;6.60;;
70806;SDS011;58882;52.170;5.386;2023-04-28T08:13:37;11.75;;;6.80;;
70806;SDS011;58882;52.170;5.386;2023-04-28T08:16:04;11.55;;;6.68;;
70806;SDS011;58882;52.170;5.386;2023-04-28T08:18:32;11.07;;;6.70;;
70806;SDS011;58882;52.170;5.386;2023-04-28T08:20:59;12.40;;;6.75;;
70806;SDS011;58882;52.170;5.386;2023-04-28T08:23:26;12.95;;;6.45;;
70806;SDS011;58882;52.170;5.386;2023-04-28T08:25:55;11.05;;;6.53;;
70806;SDS011;58882;52.170;5.386;2023-04-28T08:28:22;11.13;;;6.65;;
70806;SDS011;58882;52.170;5.386;2023-04-28T08:30:49;13.98;;;6.65;;
70806;SDS011;58882;52.170;5.386;2023-04-28T08:33:16;12.10;;;6.57;;
70806;SDS011;58882;52.170;5.386;2023-04-28T08:35:44;12.98;;;7.10;;
70806;SDS011;58882;52.170;5.386;2023-04-28T08:38:12;12.27;;;6.88;;
70806;SDS011;58882;52.170;5.386;2023-04-28T08:40:40;11.27;;;7.03;;
70806;SDS011;58882;52.170;5.386;2023-04-28T08:43:08;10.95;;;6.65;;
70806;SDS011;58882;52.170;5.386;2023-04-28T08:45:40;14.52;;;7.82;;
70806;SDS011;58882;52.170;5.386;2023-04-28T08:48:20;11.43;;;6.75;;
70806;SDS011;58882;52.170;5.386;2023-04-28T08:50:51;12.55;;;7.63;;
70806;SDS011;58882;52.170;5.386;2023-04-28T08:53:23;13.48;;;7.32;;
70806;SDS011;58882;52.170;5.386;2023-04-28T08:55:53;12.10;;;7.35;;
70806;SDS011;58882;52.170;5.386;2023-04-28T08:58:25;12.18;;;6.93;;
70806;SDS011;58882;52.170;5.386;2023-04-28T09:00:52;12.57;;;7.30;;
70806;SDS011;58882;52.170;5.386;2023-04-28T09:03:19;14.55;;;8.10;;
70806;SDS011;58882;52.170;5.386;2023-04-28T09:05:47;13.57;;;7.68;;
70806;SDS011;58882;52.170;5.386;2023-04-28T09:08:14;13.82;;;7.97;;
70806;SDS011;58882;52.170;5.386;2023-04-28T09:10:41;14.00;;;7.88;;
70806;SDS011;58882;52.170;5.386;2023-04-28T09:13:08;13.50;;;8.48;;
70806;SDS011;58882;52.170;5.386;2023-04-28T09:15:36;14.55;;;8.00;;
70806;SDS011;58882;52.170;5.386;2023-04-28T09:18:06;12.15;;;7.43;;
70806;SDS011;58882;52.170;5.386;2023-04-28T09:20:34;13.38;;;7.72;;
70806;SDS011;58882;52.170;5.386;2023-04-28T09:25:39;13.80;;;8.13;;
70806;SDS011;58882;52.170;5.386;2023-04-28T09:28:21;11.77;;;7.05;;
70806;SDS011;58882;52.170;5.386;2023-04-28T09:30:48;15.48;;;8.10;;
70806;SDS011;58882;52.170;5.386;2023-04-28T09:33:15;14.00;;;8.18;;
70806;SDS011;58882;52.170;5.386;2023-04-28T09:35:42;13.13;;;8.23;;
70806;SDS011;58882;52.170;5.386;2023-04-28T09:38:11;14.80;;;8.25;;
70806;SDS011;58882;52.170;5.386;2023-04-28T09:46:12;16.27;;;8.15;;
70806;SDS011;58882;52.170;5.386;2023-04-28T09:48:53;14.25;;;8.85;;
70806;SDS011;58882;52.170;5.386;2023-04-28T09:51:26;13.38;;;7.53;;
70806;SDS011;58882;52.170;5.386;2023-04-28T09:53:54;13.88;;;8.05;;
70806;SDS011;58882;52.170;5.386;2023-04-28T09:56:26;13.10;;;8.50;;
70806;SDS011;58882;52.170;5.386;2023-04-28T09:58:59;13.48;;;7.60;;
70806;SDS011;58882;52.170;5.386;2023-04-28T10:01:27;14.18;;;8.10;;
70806;SDS011;58882;52.170;5.386;2023-04-28T10:03:59;13.85;;;8.75;;
70806;SDS011;58882;52.170;5.386;2023-04-28T10:06:28;13.25;;;7.75;;
70806;SDS011;58882;52.170;5.386;2023-04-28T10:08:55;12.15;;;7.70;;
70806;SDS011;58882;52.170;5.386;2023-04-28T10:13:52;12.95;;;7.85;;
70806;SDS011;58882;52.170;5.386;2023-04-28T10:16:19;12.57;;;7.40;;
70806;SDS011;58882;52.170;5.386;2023-04-28T10:18:47;11.35;;;7.50;;
70806;SDS011;58882;52.170;5.386;2023-04-28T10:21:17;12.55;;;7.38;;
70806;SDS011;58882;52.170;5.386;2023-04-28T10:23:59;13.77;;;7.60;;
70806;SDS011;58882;52.170;5.386;2023-04-28T10:27:01;10.63;;;6.53;;
70806;SDS011;58882;52.170;5.386;2023-04-28T10:29:34;11.57;;;6.70;;
70806;SDS011;58882;52.170;5.386;2023-04-28T10:34:44;11.38;;;6.53;;
70806;SDS011;58882;52.170;5.386;2023-04-28T10:37:11;11.45;;;6.53;;
70806;SDS011;58882;52.170;5.386;2023-04-28T10:42:50;10.40;;;5.75;;
70806;SDS011;58882;52.170;5.386;2023-04-28T10:48:23;9.15;;;5.80;;
70806;SDS011;58882;52.170;5.386;2023-04-28T10:56:19;11.00;;;6.32;;
70806;SDS011;58882;52.170;5.386;2023-04-28T11:03:58;11.60;;;6.80;;
70806;SDS011;58882;52.170;5.386;2023-04-28T11:06:39;10.43;;;6.25;;
70806;SDS011;58882;52.170;5.386;2023-04-28T11:11:39;11.40;;;6.53;;
70806;SDS011;58882;52.170;5.386;2023-04-28T11:16:52;9.57;;;6.25;;
70806;SDS011;58882;52.170;5.386;2023-04-28T11:19:24;11.13;;;6.47;;
70806;SDS011;58882;52.170;5.386;2023-04-28T11:21:56;9.88;;;6.28;;
70806;SDS011;58882;52.170;5.386;2023-04-28T11:24:24;9.15;;;5.93;;
70806;SDS011;58882;52.170;5.386;2023-04-28T11:26:54;9.45;;;5.93;;
70806;SDS011;58882;52.170;5.386;2023-04-28T11:29:34;10.20;;;6.13;;
70806;SDS011;58882;52.170;5.386;2023-04-28T11:32:06;10.43;;;5.80;;
70806;SDS011;58882;52.170;5.386;2023-04-28T11:34:34;10.60;;;6.03;;
70806;SDS011;58882;52.170;5.386;2023-04-28T11:37:02;10.32;;;5.90;;
70806;SDS011;58882;52.170;5.386;2023-04-28T11:39:31;9.85;;;5.95;;
70806;SDS011;58882;52.170;5.386;2023-04-28T11:41:59;9.25;;;5.45;;
70806;SDS011;58882;52.170;5.386;2023-04-28T11:44:29;11.18;;;6.25;;
70806;SDS011;58882;52.170;5.386;2023-04-28T11:49:28;11.15;;;6.57;;
70806;SDS011;58882;52.170;5.386;2023-04-28T11:52:07;10.98;;;6.43;;
70806;SDS011;58882;52.170;5.386;2023-04-28T11:54:35;11.20;;;6.15;;
70806;SDS011;58882;52.170;5.386;2023-04-28T11:57:02;10.73;;;5.93;;
70806;SDS011;58882;52.170;5.386;2023-04-28T11:59:31;11.20;;;5.75;;
70806;SDS011;58882;52.170;5.386;2023-04-28T12:02:05;12.70;;;6.25;;
70806;SDS011;58882;52.170;5.386;2023-04-28T12:09:36;10.85;;;5.70;;
70806;SDS011;58882;52.170;5.386;2023-04-28T12:12:04;9.35;;;5.57;;
70806;SDS011;58882;52.170;5.386;2023-04-28T12:14:52;10.75;;;4.75;;
70806;SDS011;58882;52.170;5.386;2023-04-28T12:19:56;11.07;;;4.50;;
70806;SDS011;58882;52.170;5.386;2023-04-28T12:22:24;8.18;;;4.30;;
70806;SDS011;58882;52.170;5.386;2023-04-28T12:27:38;8.65;;;4.00;;
70806;SDS011;58882;52.170;5.386;2023-04-28T12:32:46;9.30;;;3.60;;
70806;SDS011;58882;52.170;5.386;2023-04-28T12:35:13;7.63;;;3.40;;
70806;SDS011;58882;52.170;5.386;2023-04-28T12:37:41;7.43;;;3.22;;
70806;SDS011;58882;52.170;5.386;2023-04-28T12:40:09;6.15;;;2.83;;
70806;SDS011;58882;52.170;5.386;2023-04-28T12:42:36;7.88;;;3.20;;
70806;SDS011;58882;52.170;5.386;2023-04-28T12:45:04;4.97;;;2.40;;
70806;SDS011;58882;52.170;5.386;2023-04-28T12:47:31;5.07;;;2.25;;
70806;SDS011;58882;52.170;5.386;2023-04-28T12:49:58;5.63;;;2.88;;
70806;SDS011;58882;52.170;5.386;2023-04-28T12:52:25;5.25;;;2.45;;
70806;SDS011;58882;52.170;5.386;2023-04-28T12:54:52;6.40;;;2.60;;
70806;SDS011;58882;52.170;5.386;2023-04-28T12:57:19;5.80;;;2.83;;
70806;SDS011;58882;52.170;5.386;2023-04-28T12:59:46;6.82;;;3.10;;
70806;SDS011;58882;52.170;5.386;2023-04-28T13:02:17;5.38;;;2.85;;
70806;SDS011;58882;52.170;5.386;2023-04-28T13:04:45;8.20;;;3.85;;
70806;SDS011;58882;52.170;5.386;2023-04-28T13:07:12;7.35;;;3.78;;
70806;SDS011;58882;52.170;5.386;2023-04-28T13:09:42;7.47;;;3.83;;
70806;SDS011;58882;52.170;5.386;2023-04-28T13:12:09;7.65;;;4.20;;
70806;SDS011;58882;52.170;5.386;2023-04-28T13:14:39;9.30;;;3.92;;
70806;SDS011;58882;52.170;5.386;2023-04-28T13:17:07;6.00;;;3.63;;
70806;SDS011;58882;52.170;5.386;2023-04-28T13:19:35;6.75;;;3.95;;
70806;SDS011;58882;52.170;5.386;2023-04-28T13:22:02;6.72;;;4.03;;
70806;SDS011;58882;52.170;5.386;2023-04-28T13:24:31;6.88;;;3.65;;
70806;SDS011;58882;52.170;5.386;2023-04-28T13:27:01;6.53;;;3.70;;
70806;SDS011;58882;52.170;5.386;2023-04-28T13:29:29;5.65;;;3.30;;
70806;SDS011;58882;52.170;5.386;2023-04-28T13:31:56;5.38;;;3.35;;
70806;SDS011;58882;52.170;5.386;2023-04-28T13:34:22;5.80;;;3.20;;
70806;SDS011;58882;52.170;5.386;2023-04-28T13:36:50;6.65;;;3.50;;
70806;SDS011;58882;52.170;5.386;2023-04-28T13:39:19;5.68;;;2.97;;
70806;SDS011;58882;52.170;5.386;2023-04-28T13:41:47;3.97;;;2.80;;
70806;SDS011;58882;52.170;5.386;2023-04-28T13:44:14;4.18;;;2.72;;
70806;SDS011;58882;52.170;5.386;2023-04-28T13:46:41;3.90;;;2.50;;
70806;SDS011;58882;52.170;5.386;2023-04-28T13:49:08;4.82;;;2.60;;
70806;SDS011;58882;52.170;5.386;2023-04-28T13:51:35;4.38;;;2.50;;
70806;SDS011;58882;52.170;5.386;2023-04-28T13:54:03;5.40;;;2.90;;
70806;SDS011;58882;52.170;5.386;2023-04-28T13:56:30;3.58;;;2.22;;
70806;SDS011;58882;52.170;5.386;2023-04-28T13:58:57;3.35;;;2.03;;
70806;SDS011;58882;52.170;5.386;2023-04-28T14:01:24;3.30;;;2.20;;
70806;SDS011;58882;52.170;5.386;2023-04-28T14:03:51;2.78;;;1.75;;
70806;SDS011;58882;52.170;5.386;2023-04-28T14:06:18;2.53;;;1.98;;
70806;SDS011;58882;52.170;5.386;2023-04-28T14:08:46;2.50;;;1.88;;
70806;SDS011;58882;52.170;5.386;2023-04-28T14:11:13;3.20;;;1.90;;
70806;SDS011;58882;52.170;5.386;2023-04-28T14:13:40;2.22;;;1.65;;
70806;SDS011;58882;52.170;5.386;2023-04-28T14:16:07;3.78;;;2.00;;
70806;SDS011;58882;52.170;5.386;2023-04-28T14:18:34;2.70;;;1.80;;
70806;SDS011;58882;52.170;5.386;2023-04-28T14:21:01;2.85;;;1.88;;
70806;SDS011;58882;52.170;5.386;2023-04-28T14:23:28;3.28;;;1.88;;
70806;SDS011;58882;52.170;5.386;2023-04-28T14:25:55;2.88;;;1.55;;
70806;SDS011;58882;52.170;5.386;2023-04-28T14:28:23;2.75;;;1.70;;
70806;SDS011;58882;52.170;5.386;2023-04-28T14:30:52;3.58;;;1.73;;
70806;SDS011;58882;52.170;5.386;2023-04-28T14:33:19;4.82;;;2.10;;
70806;SDS011;58882;52.170;5.386;2023-04-28T14:35:46;4.53;;;2.10;;
70806;SDS011;58882;52.170;5.386;2023-04-28T14:38:13;5.03;;;2.80;;
70806;SDS011;58882;52.170;5.386;2023-04-28T14:40:40;7.95;;;2.85;;
70806;SDS011;58882;52.170;5.386;2023-04-28T14:43:08;6.43;;;2.78;;
70806;SDS011;58882;52.170;5.386;2023-04-28T14:45:35;8.20;;;3.40;;
70806;SDS011;58882;52.170;5.386;2023-04-28T14:48:03;7.10;;;3.60;;
70806;SDS011;58882;52.170;5.386;2023-04-28T14:50:32;8.15;;;4.28;;
70806;SDS011;58882;52.170;5.386;2023-04-28T14:52:59;9.63;;;4.88;;
70806;SDS011;58882;52.170;5.386;2023-04-28T14:55:31;8.85;;;4.60;;
70806;SDS011;58882;52.170;5.386;2023-04-28T14:57:58;8.95;;;4.45;;
70806;SDS011;58882;52.170;5.386;2023-04-28T15:00:25;11.65;;;4.82;;
70806;SDS011;58882;52.170;5.386;2023-04-28T15:02:52;10.95;;;5.35;;
70806;SDS011;58882;52.170;5.386;2023-04-28T15:05:19;11.88;;;5.35;;
70806;SDS011;58882;52.170;5.386;2023-04-28T15:07:46;12.10;;;5.53;;
70806;SDS011;58882;52.170;5.386;2023-04-28T15:10:13;11.52;;;5.40;;
70806;SDS011;58882;52.170;5.386;2023-04-28T15:12:40;11.13;;;5.40;;
70806;SDS011;58882;52.170;5.386;2023-04-28T15:15:07;10.15;;;4.68;;
70806;SDS011;58882;52.170;5.386;2023-04-28T15:17:35;11.25;;;5.35;;
70806;SDS011;58882;52.170;5.386;2023-04-28T15:20:02;11.77;;;5.63;;
70806;SDS011;58882;52.170;5.386;2023-04-28T15:22:30;13.13;;;5.60;;
70806;SDS011;58882;52.170;5.386;2023-04-28T15:24:57;10.52;;;5.03;;
70806;SDS011;58882;52.170;5.386;2023-04-28T15:27:23;13.02;;;5.97;;
70806;SDS011;58882;52.170;5.386;2023-04-28T15:29:50;14.00;;;5.70;;
70806;SDS011;58882;52.170;5.386;2023-04-28T15:32:17;11.85;;;5.50;;
70806;SDS011;58882;52.170;5.386;2023-04-28T15:34:44;12.80;;;5.68;;
70806;SDS011;58882;52.170;5.386;2023-04-28T15:40:06;13.00;;;6.43;;
70806;SDS011;58882;52.170;5.386;2023-04-28T15:42:35;12.07;;;5.55;;
70806;SDS011;58882;52.170;5.386;2023-04-28T15:45:03;12.68;;;6.28;;
70806;SDS011;58882;52.170;5.386;2023-04-28T15:47:31;13.55;;;6.72;;